createdAt,value
2022-09-07T00:02:20.607Z,2.47
2022-09-07T00:07:15.000Z,2.45
2022-09-07T00:09:42.413Z,2.97
2022-09-07T00:12:10.023Z,2.72
2022-09-07T00:14:37.158Z,2.60
2022-09-07T00:17:04.297Z,2.55
2022-09-07T00:19:31.433Z,2.60
2022-09-07T00:21:58.687Z,2.55
2022-09-07T00:24:25.886Z,2.95
2022-09-07T00:26:55.655Z,3.03
2022-09-07T00:29:23.165Z,2.92
2022-09-07T00:31:50.449Z,3.00
2022-09-07T00:34:17.656Z,3.30
2022-09-07T00:36:44.768Z,3.25
2022-09-07T00:39:11.977Z,4.18
2022-09-07T00:41:39.161Z,4.10
2022-09-07T00:44:25.089Z,3.90
2022-09-07T00:46:52.389Z,4.05
2022-09-07T00:49:22.188Z,3.47
2022-09-07T00:51:52.962Z,3.25
2022-09-07T00:54:21.835Z,3.50
2022-09-07T00:56:49.865Z,3.90
2022-09-07T00:59:19.896Z,3.85
2022-09-07T01:01:47.524Z,3.80
2022-09-07T01:04:15.973Z,4.35
2022-09-07T01:09:12.642Z,2.92
2022-09-07T01:11:40.047Z,2.65
2022-09-07T01:14:08.372Z,2.47
2022-09-07T01:19:21.669Z,2.50
2022-09-07T01:22:01.114Z,1.70
2022-09-07T01:24:40.805Z,1.55
2022-09-07T01:27:07.978Z,2.15
2022-09-07T01:29:38.234Z,1.80
2022-09-07T01:32:11.024Z,2.20
2022-09-07T01:34:39.278Z,2.10
2022-09-07T01:37:25.323Z,2.00
2022-09-07T01:39:55.206Z,2.20
2022-09-07T01:42:26.510Z,1.90
2022-09-07T01:45:04.244Z,2.17
2022-09-07T01:47:43.591Z,2.28
2022-09-07T01:50:19.809Z,1.60
2022-09-07T01:52:58.893Z,1.80
2022-09-07T01:55:42.018Z,1.80
2022-09-07T01:58:20.415Z,1.70
2022-09-07T02:00:55.864Z,2.17
2022-09-07T02:03:31.507Z,1.75
2022-09-07T02:05:58.611Z,1.80
2022-09-07T02:08:47.007Z,1.75
2022-09-07T02:11:18.205Z,1.52
2022-09-07T02:13:55.378Z,1.70
2022-09-07T02:16:25.494Z,1.80
2022-09-07T02:18:55.806Z,1.85
2022-09-07T02:21:25.945Z,1.90
2022-09-07T02:23:56.880Z,2.00
2022-09-07T02:26:26.549Z,1.90
2022-09-07T02:28:53.755Z,2.25
2022-09-07T02:31:21.052Z,2.20
2022-09-07T02:33:48.441Z,1.88
2022-09-07T02:36:17.101Z,2.10
2022-09-07T02:38:44.381Z,2.20
2022-09-07T02:41:29.834Z,2.10
2022-09-07T02:43:57.449Z,2.28
2022-09-07T02:46:43.517Z,2.58
2022-09-07T02:49:34.227Z,2.60
2022-09-07T02:52:13.481Z,2.00
2022-09-07T02:54:59.113Z,2.45
2022-09-07T02:57:35.315Z,2.20
2022-09-07T03:00:07.125Z,2.50
2022-09-07T03:02:52.910Z,2.15
2022-09-07T03:05:26.248Z,1.80
2022-09-07T03:07:53.368Z,2.03
2022-09-07T03:10:20.837Z,2.88
2022-09-07T03:12:49.253Z,2.53
2022-09-07T03:15:18.089Z,2.47
2022-09-07T03:17:46.184Z,2.05
2022-09-07T03:20:13.788Z,2.28
2022-09-07T03:22:40.990Z,2.00
2022-09-07T03:25:08.381Z,2.30
2022-09-07T03:27:35.727Z,2.20
2022-09-07T03:30:03.004Z,2.50
2022-09-07T03:32:34.638Z,2.80
2022-09-07T03:35:02.272Z,2.15
2022-09-07T03:37:29.575Z,2.30
2022-09-07T03:39:57.250Z,2.33
2022-09-07T03:42:24.545Z,2.58
2022-09-07T03:44:51.747Z,2.78
2022-09-07T03:47:19.196Z,2.35
2022-09-07T03:49:46.466Z,2.67
2022-09-07T03:52:13.660Z,1.83
2022-09-07T03:54:40.854Z,2.95
2022-09-07T03:57:08.325Z,2.78
2022-09-07T03:59:35.627Z,2.33
2022-09-07T04:02:02.866Z,2.53
2022-09-07T04:04:30.153Z,2.63
2022-09-07T04:06:57.529Z,2.50
2022-09-07T04:09:24.665Z,3.30
2022-09-07T04:11:51.838Z,3.03
2022-09-07T04:14:19.006Z,2.90
2022-09-07T04:16:46.318Z,5.05
2022-09-07T04:19:13.583Z,3.97
2022-09-07T04:21:41.690Z,2.80
2022-09-07T04:24:08.891Z,2.40
2022-09-07T04:26:37.221Z,2.58
2022-09-07T04:31:31.483Z,2.95
2022-09-07T04:33:58.645Z,3.25
2022-09-07T04:36:25.884Z,3.28
2022-09-07T04:38:57.600Z,3.45
2022-09-07T04:41:24.973Z,3.80
2022-09-07T04:43:56.366Z,3.20
2022-09-07T04:46:27.993Z,3.38
2022-09-07T04:48:56.679Z,3.42
2022-09-07T04:51:25.149Z,3.30
2022-09-07T04:53:53.674Z,2.53
2022-09-07T04:56:21.622Z,3.42
2022-09-07T04:58:49.234Z,2.88
2022-09-07T05:01:18.025Z,3.50
2022-09-07T05:03:45.335Z,3.42
2022-09-07T05:06:12.761Z,3.72
2022-09-07T05:08:41.627Z,4.10
2022-09-07T05:11:09.453Z,4.20
2022-09-07T05:13:36.905Z,3.75
2022-09-07T05:16:12.011Z,3.55
2022-09-07T05:18:39.279Z,3.50
2022-09-07T05:21:13.959Z,4.10
2022-09-07T05:23:41.498Z,4.00
2022-09-07T05:26:09.049Z,3.10
2022-09-07T05:28:36.882Z,3.65
2022-09-07T05:36:38.699Z,3.80
2022-09-07T05:39:06.594Z,4.00
2022-09-07T05:41:36.474Z,4.18
2022-09-07T05:46:54.942Z,3.22
2022-09-07T05:49:22.185Z,4.22
2022-09-07T05:51:49.556Z,4.00
2022-09-07T05:54:16.801Z,4.00
2022-09-07T05:56:45.004Z,3.15
2022-09-07T05:59:14.171Z,7.60
2022-09-07T06:01:42.069Z,15.18
2022-09-07T06:04:09.844Z,4.50
2022-09-07T06:06:41.246Z,4.28
2022-09-07T06:09:11.337Z,4.30
2022-09-07T06:11:38.545Z,4.80
2022-09-07T06:14:05.769Z,5.53
2022-09-07T06:16:34.666Z,4.13
2022-09-07T06:19:05.842Z,3.90
2022-09-07T06:21:35.269Z,3.97
2022-09-07T06:24:02.517Z,3.92
2022-09-07T06:26:29.748Z,4.13
2022-09-07T06:28:58.030Z,3.90
2022-09-07T06:31:25.872Z,4.47
2022-09-07T06:33:54.991Z,4.47
2022-09-07T06:36:23.429Z,4.53
2022-09-07T06:38:51.058Z,4.70
2022-09-07T06:44:06.798Z,5.07
2022-09-07T06:49:21.140Z,4.60
2022-09-07T06:51:48.263Z,4.68
2022-09-07T06:57:09.110Z,4.47
2022-09-07T06:59:36.855Z,4.93
2022-09-07T07:02:04.350Z,5.07
2022-09-07T07:04:33.245Z,4.05
2022-09-07T07:07:03.541Z,5.07
2022-09-07T07:09:30.801Z,5.38
2022-09-07T07:11:57.991Z,5.70
2022-09-07T07:14:25.128Z,5.38
2022-09-07T07:16:52.254Z,5.15
2022-09-07T07:19:19.384Z,4.57
2022-09-07T07:22:10.880Z,5.03
2022-09-07T07:24:34.051Z,5.53
2022-09-07T07:27:01.329Z,4.97
2022-09-07T07:29:28.770Z,4.85
2022-09-07T07:31:56.167Z,5.63
2022-09-07T07:34:46.065Z,6.90
2022-09-07T07:37:15.996Z,6.15
2022-09-07T07:42:31.323Z,5.90
2022-09-07T07:47:50.266Z,6.45
2022-09-07T07:50:34.303Z,5.07
2022-09-07T07:55:52.285Z,5.15
2022-09-07T07:58:20.160Z,7.05
2022-09-07T08:00:56.101Z,7.18
2022-09-07T08:03:24.481Z,6.97
2022-09-07T08:05:52.279Z,8.00
2022-09-07T08:08:19.772Z,8.07
2022-09-07T08:10:48.112Z,9.93
2022-09-07T08:13:16.315Z,9.98
2022-09-07T08:15:46.977Z,9.63
2022-09-07T08:18:19.208Z,7.88
2022-09-07T08:20:46.688Z,9.57
2022-09-07T08:23:14.802Z,10.45
2022-09-07T08:25:50.670Z,9.50
2022-09-07T08:28:19.816Z,10.40
2022-09-07T08:30:53.007Z,10.52
2022-09-07T08:33:22.540Z,10.05
2022-09-07T08:36:00.445Z,8.95
2022-09-07T08:38:37.927Z,10.13
2022-09-07T08:41:22.045Z,10.13
2022-09-07T08:44:06.334Z,9.02
2022-09-07T08:46:37.470Z,10.23
2022-09-07T08:49:07.533Z,9.35
2022-09-07T08:51:39.886Z,8.65
2022-09-07T08:59:54.049Z,10.82
2022-09-07T09:05:27.716Z,10.93
2022-09-07T09:06:11.309Z,10.10
2022-09-07T09:08:00.792Z,9.82
2022-09-07T09:10:45.132Z,10.10
2022-09-07T09:13:20.232Z,12.27
2022-09-07T09:15:59.994Z,10.55
2022-09-07T09:18:48.911Z,10.85
2022-09-07T09:21:17.547Z,10.25
2022-09-07T09:23:45.444Z,10.50
2022-09-07T09:26:15.747Z,9.45
2022-09-07T09:28:54.526Z,9.68
2022-09-07T09:31:23.766Z,9.68
2022-09-07T09:37:12.072Z,9.43
2022-09-07T09:39:40.053Z,9.85
2022-09-07T09:44:50.373Z,10.20
2022-09-07T09:47:42.849Z,8.95
2022-09-07T09:52:49.283Z,8.73
2022-09-07T09:55:35.808Z,8.70
2022-09-07T10:04:30.335Z,9.73
2022-09-07T10:07:13.588Z,8.73
2022-09-07T10:09:41.928Z,7.10
2022-09-07T10:12:23.372Z,8.63
2022-09-07T10:15:00.394Z,8.73
2022-09-07T10:17:38.021Z,7.20
2022-09-07T10:20:17.175Z,8.15
2022-09-07T10:25:35.317Z,7.45
2022-09-07T10:28:04.668Z,6.38
2022-09-07T10:30:42.948Z,6.40
2022-09-07T10:33:20.944Z,6.47
2022-09-07T10:35:54.504Z,4.53
2022-09-07T10:38:25.073Z,5.57
2022-09-07T10:41:09.681Z,5.40
2022-09-07T10:43:51.117Z,6.45
2022-09-07T10:46:56.391Z,5.60
2022-09-07T10:49:21.555Z,4.53
2022-09-07T10:51:56.814Z,4.82
2022-09-07T10:54:38.657Z,4.25
2022-09-07T10:57:14.080Z,3.92
2022-09-07T11:05:51.279Z,2.92
2022-09-07T11:08:31.488Z,3.42
2022-09-07T11:11:05.934Z,3.88
2022-09-07T11:14:09.343Z,2.83
2022-09-07T11:16:51.244Z,3.90
2022-09-07T11:19:41.271Z,3.03
2022-09-07T11:22:40.372Z,2.90
2022-09-07T11:25:31.581Z,3.30
2022-09-07T11:28:22.657Z,3.08
2022-09-07T11:30:55.563Z,2.75
2022-09-07T11:33:30.141Z,2.58
2022-09-07T11:36:13.244Z,2.60
2022-09-07T11:38:44.572Z,2.58
2022-09-07T11:41:12.055Z,2.90
2022-09-07T11:46:22.130Z,2.65
2022-09-07T11:49:12.036Z,2.85
2022-09-07T11:51:39.735Z,2.80
2022-09-07T11:54:25.212Z,2.80
2022-09-07T11:56:56.859Z,2.55
2022-09-07T11:59:52.961Z,2.58
2022-09-07T12:02:36.682Z,2.80
2022-09-07T12:05:33.762Z,2.33
2022-09-07T12:08:19.392Z,2.45
2022-09-07T12:10:54.089Z,2.75
2022-09-07T12:13:30.607Z,2.75
2022-09-07T12:16:10.663Z,2.63
2022-09-07T12:21:24.746Z,2.38
2022-09-07T12:23:53.373Z,2.45
2022-09-07T12:26:44.685Z,2.35
2022-09-07T12:29:22.872Z,2.40
2022-09-07T12:31:59.262Z,2.25
2022-09-07T12:34:50.197Z,3.22
2022-09-07T12:37:36.944Z,2.70
2022-09-07T12:40:30.717Z,2.20
2022-09-07T12:43:13.355Z,3.00
2022-09-07T12:45:40.550Z,2.50
2022-09-07T12:48:19.787Z,2.10
2022-09-07T12:51:06.187Z,2.00
2022-09-07T12:53:57.867Z,2.63
2022-09-07T12:56:25.184Z,2.00
2022-09-07T12:59:01.064Z,1.90
2022-09-07T13:01:33.705Z,1.67
2022-09-07T13:04:19.073Z,2.00
2022-09-07T13:07:03.295Z,2.03
2022-09-07T13:09:43.310Z,1.73
2022-09-07T13:15:36.988Z,1.77
2022-09-07T13:18:04.236Z,1.50
2022-09-07T13:20:37.655Z,1.63
2022-09-07T13:23:23.732Z,1.40
2022-09-07T13:25:53.106Z,1.48
2022-09-07T13:28:27.027Z,1.63
2022-09-07T13:33:28.569Z,1.40
2022-09-07T13:36:00.613Z,1.40
2022-09-07T13:38:28.697Z,1.50
2022-09-07T13:41:17.196Z,1.13
2022-09-07T13:43:48.396Z,1.42
2022-09-07T13:47:01.045Z,1.40
2022-09-07T13:49:46.795Z,1.10
2022-09-07T13:55:27.569Z,1.45
2022-09-07T13:58:22.659Z,1.27
2022-09-07T14:00:52.224Z,1.38
2022-09-07T14:03:19.739Z,1.20
2022-09-07T14:05:46.897Z,1.17
2022-09-07T14:08:30.928Z,1.45
2022-09-07T14:10:59.193Z,1.35
2022-09-07T14:13:26.617Z,1.25
2022-09-07T14:15:59.778Z,1.30
2022-09-07T14:18:31.262Z,1.65
2022-09-07T14:20:58.762Z,1.20
2022-09-07T14:23:29.787Z,1.33
2022-09-07T14:26:27.220Z,1.65
2022-09-07T14:31:30.878Z,1.13
2022-09-07T14:34:04.210Z,1.60
2022-09-07T14:36:48.264Z,1.20
2022-09-07T14:39:17.761Z,1.30
2022-09-07T14:41:45.792Z,2.15
2022-09-07T14:44:28.962Z,1.50
2022-09-07T14:46:57.344Z,1.33
2022-09-07T14:49:24.919Z,1.23
2022-09-07T14:51:53.266Z,1.13
2022-09-07T14:54:27.683Z,1.25
2022-09-07T14:57:24.458Z,1.77
2022-09-07T14:59:53.750Z,1.27
2022-09-07T15:02:29.948Z,1.20
2022-09-07T15:05:15.540Z,1.20
2022-09-07T15:07:53.508Z,1.10
2022-09-07T15:10:26.042Z,1.20
2022-09-07T15:12:56.655Z,1.30
2022-09-07T15:15:37.625Z,1.30
2022-09-07T15:18:08.970Z,1.30
2022-09-07T15:20:36.772Z,1.15
2022-09-07T15:23:06.706Z,1.52
2022-09-07T15:25:50.681Z,1.33
2022-09-07T15:34:02.228Z,1.10
2022-09-07T15:36:32.076Z,1.20
2022-09-07T15:39:00.080Z,1.25
2022-09-07T15:41:29.410Z,1.77
2022-09-07T15:43:59.411Z,1.25
2022-09-07T15:46:27.453Z,1.52
2022-09-07T15:48:55.663Z,1.38
2022-09-07T15:54:13.448Z,1.38
2022-09-07T15:56:42.358Z,1.45
2022-09-07T15:59:10.057Z,1.60
2022-09-07T16:01:54.101Z,1.40
2022-09-07T16:04:24.386Z,1.25
2022-09-07T16:06:51.717Z,1.25
2022-09-07T16:09:21.871Z,1.30
2022-09-07T16:11:50.438Z,1.20
2022-09-07T16:14:18.376Z,1.45
2022-09-07T16:19:36.213Z,1.27
2022-09-07T16:22:08.273Z,1.15
2022-09-07T16:24:35.845Z,1.38
2022-09-07T16:27:03.582Z,1.25
2022-09-07T16:29:31.200Z,1.58
2022-09-07T16:34:49.581Z,1.40
2022-09-07T16:39:47.979Z,1.30
2022-09-07T16:42:37.508Z,1.73
2022-09-07T16:48:05.076Z,1.63
2022-09-07T16:50:36.200Z,1.60
2022-09-07T16:53:04.421Z,1.67
2022-09-07T16:55:31.783Z,1.60
2022-09-07T17:00:52.330Z,1.80
2022-09-07T17:03:19.677Z,1.40
2022-09-07T17:08:41.082Z,1.60
2022-09-07T17:11:11.024Z,1.48
2022-09-07T17:13:39.348Z,1.25
2022-09-07T17:16:11.936Z,1.50
2022-09-07T17:21:29.924Z,1.50
2022-09-07T17:24:04.021Z,1.73
2022-09-07T17:26:32.328Z,1.80
2022-09-07T17:29:00.523Z,1.30
2022-09-07T17:34:24.816Z,1.60
2022-09-07T17:36:52.116Z,1.42
2022-09-07T17:39:19.900Z,1.45
2022-09-07T17:44:41.349Z,1.40
2022-09-07T17:47:08.637Z,1.73
2022-09-07T17:49:36.877Z,1.80
2022-09-07T17:52:23.615Z,2.05
2022-09-07T17:54:52.047Z,2.00
2022-09-07T17:57:19.607Z,1.80
2022-09-07T18:02:33.783Z,2.20
2022-09-07T18:05:02.360Z,2.22
2022-09-07T18:07:29.751Z,2.13
2022-09-07T18:09:57.098Z,2.45
2022-09-07T18:12:27.984Z,2.25
2022-09-07T18:14:57.023Z,2.05
2022-09-07T18:17:24.415Z,3.47
2022-09-07T18:19:51.814Z,3.17
2022-09-07T18:22:19.438Z,2.90
2022-09-07T18:24:46.678Z,2.45
2022-09-07T18:27:13.987Z,2.40
2022-09-07T18:29:43.409Z,2.63
2022-09-07T18:32:11.201Z,2.42
2022-09-07T18:34:41.147Z,2.40
2022-09-07T18:37:08.938Z,2.45
2022-09-07T18:39:36.462Z,2.10
2022-09-07T18:42:04.588Z,2.30
2022-09-07T18:47:27.236Z,2.60
2022-09-07T18:49:55.463Z,2.65
2022-09-07T18:55:10.261Z,3.00
2022-09-07T18:57:37.743Z,3.97
2022-09-07T19:00:06.265Z,4.90
2022-09-07T19:02:33.700Z,3.53
2022-09-07T19:07:48.016Z,3.20
2022-09-07T19:10:16.854Z,3.70
2022-09-07T19:12:46.206Z,2.40
2022-09-07T19:15:13.706Z,2.80
2022-09-07T19:17:41.365Z,2.30
2022-09-07T19:20:08.685Z,2.70
2022-09-07T19:22:35.806Z,2.53
2022-09-07T19:25:02.907Z,2.45
2022-09-07T19:27:33.777Z,2.50
2022-09-07T19:30:01.192Z,2.45
2022-09-07T19:32:28.350Z,2.60
2022-09-07T19:34:56.179Z,2.10
2022-09-07T19:37:28.956Z,2.33
2022-09-07T19:39:56.185Z,2.17
2022-09-07T19:42:24.281Z,2.22
2022-09-07T19:44:51.674Z,2.40
2022-09-07T19:47:19.247Z,2.67
2022-09-07T19:49:46.599Z,2.40
2022-09-07T19:52:13.762Z,2.80
2022-09-07T19:54:40.891Z,2.80
2022-09-07T19:57:08.073Z,2.60
2022-09-07T19:59:35.300Z,2.38
2022-09-07T20:02:02.515Z,2.70
2022-09-07T20:04:29.739Z,2.38
2022-09-07T20:06:56.938Z,2.42
2022-09-07T20:09:25.844Z,2.60
2022-09-07T20:11:52.944Z,3.38
2022-09-07T20:14:20.387Z,3.40
2022-09-07T20:16:48.567Z,3.53
2022-09-07T20:19:16.116Z,3.53
2022-09-07T20:21:43.386Z,2.60
2022-09-07T20:24:14.389Z,2.60
2022-09-07T20:26:41.604Z,2.55
2022-09-07T20:29:27.816Z,2.60
2022-09-07T20:31:56.418Z,2.65
2022-09-07T20:34:23.774Z,2.60
2022-09-07T20:36:51.208Z,3.17
2022-09-07T20:39:18.464Z,2.30
2022-09-07T20:41:45.759Z,1.70
2022-09-07T20:44:13.532Z,2.08
2022-09-07T20:46:41.007Z,2.25
2022-09-07T20:49:08.248Z,1.88
2022-09-07T20:51:35.466Z,2.03
2022-09-07T20:54:02.653Z,2.17
2022-09-07T20:56:29.921Z,1.90
2022-09-07T20:59:00.399Z,2.40
2022-09-07T21:01:27.928Z,2.25
2022-09-07T21:03:58.831Z,2.45
2022-09-07T21:09:10.862Z,2.00
2022-09-07T21:11:39.970Z,2.50
2022-09-07T21:14:08.284Z,2.30
2022-09-07T21:19:05.182Z,2.17
2022-09-07T21:21:38.308Z,2.00
2022-09-07T21:24:11.108Z,2.47
2022-09-07T21:26:54.396Z,2.17
2022-09-07T21:29:23.950Z,2.10
2022-09-07T21:31:52.808Z,2.00
2022-09-07T21:34:20.096Z,2.28
2022-09-07T21:36:47.238Z,1.75
2022-09-07T21:39:15.301Z,1.92
2022-09-07T21:41:43.432Z,1.73
2022-09-07T21:44:13.529Z,1.90
2022-09-07T21:46:41.018Z,1.90
2022-09-07T21:49:08.284Z,1.95
2022-09-07T21:51:35.466Z,2.10
2022-09-07T21:54:02.644Z,1.90
2022-09-07T21:56:30.311Z,2.10
2022-09-07T21:59:08.002Z,1.63
2022-09-07T22:01:35.311Z,2.33
2022-09-07T22:04:04.430Z,2.00
2022-09-07T22:06:32.530Z,2.25
2022-09-07T22:09:00.308Z,1.95
2022-09-07T22:11:28.278Z,1.88
2022-09-07T22:13:56.768Z,1.85
2022-09-07T22:16:24.604Z,2.10
2022-09-07T22:18:52.199Z,2.28
2022-09-07T22:21:24.635Z,2.28
2022-09-07T22:23:52.882Z,1.90
2022-09-07T22:28:47.845Z,1.75
2022-09-07T22:31:14.977Z,1.90
2022-09-07T22:33:42.657Z,1.85
2022-09-07T22:36:15.577Z,1.98
2022-09-07T22:38:43.642Z,1.80
2022-09-07T22:41:12.441Z,1.55
2022-09-07T22:43:39.819Z,1.85
2022-09-07T22:46:07.511Z,1.95
2022-09-07T22:48:34.943Z,2.17
2022-09-07T22:51:02.903Z,1.95
2022-09-07T22:53:31.321Z,2.30
2022-09-07T22:55:59.056Z,2.00
2022-09-07T22:58:29.030Z,2.38
2022-09-07T23:00:59.518Z,2.60
2022-09-07T23:03:28.414Z,2.40
2022-09-07T23:05:56.872Z,2.33
2022-09-07T23:08:24.442Z,1.90
2022-09-07T23:10:51.690Z,2.00
2022-09-07T23:13:18.848Z,2.05
2022-09-07T23:15:47.036Z,1.70
2022-09-07T23:18:18.138Z,2.42
2022-09-07T23:20:45.909Z,2.30
2022-09-07T23:23:16.040Z,1.88
2022-09-07T23:25:43.551Z,1.80
2022-09-07T23:28:12.376Z,1.92
2022-09-07T23:30:43.277Z,1.70
2022-09-07T23:33:10.452Z,2.15
2022-09-07T23:35:37.690Z,2.10
2022-09-07T23:38:05.000Z,2.33
2022-09-07T23:40:34.292Z,2.20
2022-09-07T23:43:01.823Z,2.35
2022-09-07T23:45:29.054Z,2.22
2022-09-07T23:47:56.171Z,2.28
2022-09-07T23:50:23.273Z,2.00
2022-09-07T23:52:50.416Z,2.90
2022-09-07T23:55:17.650Z,3.10
2022-09-07T23:57:44.881Z,2.42
